createdAt,value
2019-05-21T00:03:42.865Z,16.80
2019-05-21T00:08:47.985Z,16.70
2019-05-21T00:13:52.877Z,16.70
2019-05-21T00:18:58.034Z,16.70
2019-05-21T00:24:03.366Z,16.70
2019-05-21T00:29:44.658Z,16.60
2019-05-21T00:35:27.685Z,16.60
2019-05-21T00:41:09.145Z,16.50
2019-05-21T00:46:14.094Z,16.50
2019-05-21T00:51:19.233Z,16.40
2019-05-21T00:56:24.388Z,16.30
2019-05-21T01:01:30.095Z,16.30
2019-05-21T01:06:35.317Z,16.30
2019-05-21T01:11:40.589Z,16.20
2019-05-21T01:16:46.496Z,16.20
2019-05-21T01:21:52.213Z,16.10
2019-05-21T01:26:57.602Z,16.10
2019-05-21T01:32:02.684Z,16.00
2019-05-21T01:37:08.338Z,15.90
2019-05-21T01:42:13.469Z,15.80
2019-05-21T01:47:18.649Z,15.80
2019-05-21T01:52:23.718Z,15.70
2019-05-21T01:57:28.962Z,15.70
2019-05-21T02:02:34.036Z,15.60
2019-05-21T02:07:39.140Z,15.60
2019-05-21T02:12:44.560Z,15.50
2019-05-21T02:17:49.690Z,15.50
2019-05-21T02:22:54.826Z,15.50
2019-05-21T02:27:59.990Z,15.50
2019-05-21T02:33:05.107Z,15.40
2019-05-21T02:38:10.079Z,15.40
2019-05-21T02:43:15.246Z,15.40
2019-05-21T02:48:20.462Z,15.30
2019-05-21T02:53:25.790Z,15.30
2019-05-21T02:58:30.979Z,15.20
2019-05-21T03:03:37.103Z,15.20
2019-05-21T03:08:42.557Z,15.10
2019-05-21T03:13:47.697Z,15.10
2019-05-21T03:18:52.889Z,15.00
2019-05-21T03:23:58.062Z,15.00
2019-05-21T03:29:03.322Z,14.90
2019-05-21T03:34:08.530Z,14.90
2019-05-21T03:39:13.672Z,14.90
2019-05-21T03:44:18.777Z,14.80
2019-05-21T03:49:24.238Z,14.80
2019-05-21T03:54:29.531Z,14.90
2019-05-21T03:59:34.903Z,14.90
2019-05-21T04:04:39.876Z,14.90
2019-05-21T04:09:45.371Z,14.90
2019-05-21T04:14:52.110Z,15.00
2019-05-21T04:19:57.075Z,15.10
2019-05-21T04:25:02.070Z,15.30
2019-05-21T04:30:11.227Z,15.40
2019-05-21T04:35:15.984Z,15.50
2019-05-21T04:40:20.936Z,15.60
2019-05-21T04:45:25.900Z,15.70
2019-05-21T04:50:31.338Z,15.80
2019-05-21T04:55:36.769Z,15.90
2019-05-21T05:00:41.770Z,16.00
2019-05-21T05:05:46.710Z,16.10
2019-05-21T05:10:51.904Z,16.10
2019-05-21T05:15:57.281Z,16.10
2019-05-21T05:21:02.577Z,16.10
2019-05-21T05:26:08.128Z,16.10
2019-05-21T05:31:15.481Z,16.00
2019-05-21T05:36:20.341Z,16.10
2019-05-21T05:41:25.305Z,16.10
2019-05-21T05:46:30.585Z,16.20
2019-05-21T05:51:36.014Z,16.30
2019-05-21T05:56:41.256Z,16.30
2019-05-21T06:01:46.208Z,16.40
2019-05-21T06:06:51.165Z,16.50
2019-05-21T06:11:56.368Z,16.60
2019-05-21T06:17:01.787Z,16.50
2019-05-21T06:22:07.415Z,16.60
2019-05-21T06:27:12.735Z,16.70
2019-05-21T06:32:17.955Z,16.80
2019-05-21T06:37:23.236Z,16.90
2019-05-21T06:42:28.487Z,17.00
2019-05-21T06:47:34.129Z,17.10
2019-05-21T06:52:39.809Z,17.20
2019-05-21T06:57:45.297Z,17.30
2019-05-21T07:02:50.766Z,17.30
2019-05-21T07:07:56.101Z,17.30
2019-05-21T07:13:01.373Z,17.30
2019-05-21T07:18:06.489Z,17.20
2019-05-21T07:23:11.466Z,17.30
2019-05-21T07:28:16.555Z,17.30
2019-05-21T07:33:21.754Z,17.40
2019-05-21T07:38:26.945Z,17.40
2019-05-21T07:43:31.931Z,17.40
2019-05-21T07:48:37.077Z,17.50
2019-05-21T07:53:42.635Z,17.60
2019-05-21T07:58:48.195Z,17.60
2019-05-21T08:03:53.401Z,17.70
2019-05-21T08:09:12.333Z,17.70
2019-05-21T08:14:06.579Z,17.70
2019-05-21T08:19:12.195Z,17.80
2019-05-21T08:24:17.796Z,18.00
2019-05-21T08:29:23.635Z,18.20
2019-05-21T08:34:29.107Z,18.60
2019-05-21T08:39:34.518Z,18.70
2019-05-21T08:44:40.115Z,18.90
2019-05-21T08:49:45.237Z,19.10
2019-05-21T08:54:51.208Z,19.30
2019-05-21T08:59:56.956Z,19.70
2019-05-21T09:05:02.235Z,20.50
2019-05-21T09:10:08.918Z,21.20
2019-05-21T09:15:15.040Z,21.60
2019-05-21T09:20:21.197Z,21.90
2019-05-21T09:25:26.225Z,21.80
2019-05-21T09:30:31.596Z,22.00
2019-05-21T09:35:36.945Z,21.90
2019-05-21T09:40:42.214Z,21.70
2019-05-21T09:45:47.586Z,21.80
2019-05-21T09:50:52.556Z,21.80
2019-05-21T09:55:59.305Z,22.00
2019-05-21T10:01:18.026Z,21.90
2019-05-21T10:06:23.436Z,21.70
2019-05-21T10:11:28.416Z,21.60
2019-05-21T10:16:33.806Z,21.60
2019-05-21T10:21:39.036Z,22.20
2019-05-21T10:26:44.015Z,23.10
2019-05-21T10:31:49.006Z,23.80
2019-05-21T10:36:54.098Z,23.90
2019-05-21T10:41:59.416Z,23.40
2019-05-21T10:47:05.196Z,22.70
2019-05-21T10:52:10.558Z,22.40
2019-05-21T10:57:15.868Z,22.70
2019-05-21T11:02:22.705Z,22.60
2019-05-21T11:07:28.782Z,23.00
2019-05-21T11:12:33.955Z,23.20
2019-05-21T11:17:53.386Z,23.40
2019-05-21T11:22:45.534Z,23.80
2019-05-21T11:27:50.505Z,24.00
2019-05-21T11:32:56.037Z,24.40
2019-05-21T11:38:01.336Z,24.40
2019-05-21T11:43:06.315Z,25.00
2019-05-21T11:48:11.385Z,25.20
2019-05-21T11:53:16.695Z,25.30
2019-05-21T11:58:22.048Z,25.50
2019-05-21T12:03:27.619Z,25.60
2019-05-21T12:08:33.661Z,26.00
2019-05-21T12:13:39.300Z,26.00
2019-05-21T12:18:44.779Z,25.70
2019-05-21T12:23:50.172Z,25.70
2019-05-21T12:28:55.931Z,26.20
2019-05-21T12:34:01.610Z,26.10
2019-05-21T12:39:14.174Z,25.90
2019-05-21T12:44:15.010Z,25.60
2019-05-21T12:49:20.569Z,25.60
2019-05-21T12:54:26.249Z,25.80
2019-05-21T12:59:31.699Z,25.70
2019-05-21T13:04:37.056Z,25.60
2019-05-21T13:09:42.371Z,26.00
2019-05-21T13:14:47.409Z,26.30
2019-05-21T13:19:52.850Z,26.60
2019-05-21T13:24:58.255Z,26.80
2019-05-21T13:30:03.906Z,27.10
2019-05-21T13:35:10.405Z,27.00
2019-05-21T13:40:19.170Z,26.50
2019-05-21T13:45:24.782Z,26.00
2019-05-21T13:50:30.130Z,25.40
2019-05-21T13:55:35.497Z,24.90
2019-05-21T14:00:45.450Z,24.40
2019-05-21T14:05:50.969Z,24.30
2019-05-21T14:10:56.409Z,24.20
2019-05-21T14:16:02.054Z,24.30
2019-05-21T14:21:08.931Z,24.30
2019-05-21T14:26:14.810Z,24.20
2019-05-21T14:31:20.573Z,24.40
2019-05-21T14:36:25.860Z,25.00
2019-05-21T14:41:31.330Z,25.50
2019-05-21T14:46:36.891Z,25.80
2019-05-21T14:51:42.090Z,26.10
2019-05-21T14:56:48.015Z,25.90
2019-05-21T15:01:53.529Z,25.50
2019-05-21T15:06:59.169Z,24.90
2019-05-21T15:12:04.730Z,24.50
2019-05-21T15:17:10.050Z,24.40
2019-05-21T15:22:15.734Z,24.40
2019-05-21T15:27:21.010Z,24.40
2019-05-21T15:32:27.705Z,24.00
2019-05-21T15:37:33.977Z,23.70
2019-05-21T15:42:39.451Z,23.30
2019-05-21T15:47:45.256Z,23.10
2019-05-21T15:52:50.441Z,23.00
2019-05-21T15:57:55.883Z,22.70
2019-05-21T16:03:01.130Z,22.50
2019-05-21T16:08:06.890Z,22.30
2019-05-21T16:13:12.490Z,21.90
2019-05-21T16:18:17.933Z,21.60
2019-05-21T16:23:23.484Z,21.40
2019-05-21T16:28:28.876Z,21.00
2019-05-21T16:33:35.087Z,20.80
2019-05-21T16:38:40.804Z,20.70
2019-05-21T16:43:46.325Z,20.70
2019-05-21T16:48:51.445Z,20.70
2019-05-21T16:53:56.471Z,20.70
2019-05-21T16:59:01.637Z,20.40
2019-05-21T17:15:10.131Z,18.90
2019-05-21T17:20:16.716Z,18.70
2019-05-21T17:25:21.710Z,18.60
2019-05-21T17:30:27.020Z,18.60
2019-05-21T17:35:32.282Z,18.60
2019-05-21T17:40:37.637Z,18.50
2019-05-21T17:45:42.950Z,18.50
2019-05-21T17:50:48.560Z,18.50
2019-05-21T17:55:54.189Z,18.40
2019-05-21T18:01:01.033Z,18.40
2019-05-21T18:06:07.777Z,18.40
2019-05-21T18:11:14.550Z,18.40
2019-05-21T18:16:21.099Z,18.40
2019-05-21T18:21:27.325Z,18.40
2019-05-21T18:26:33.311Z,18.40
2019-05-21T18:31:38.906Z,18.30
2019-05-21T18:36:45.226Z,18.30
2019-05-21T18:41:50.669Z,18.30
2019-05-21T18:46:56.470Z,18.30
2019-05-21T18:52:01.993Z,18.30
2019-05-21T18:57:07.590Z,18.40
2019-05-21T19:02:14.770Z,18.40
2019-05-21T19:07:20.534Z,18.40
2019-05-21T19:12:37.439Z,18.30
2019-05-21T19:17:35.857Z,18.30
2019-05-21T19:22:40.635Z,18.20
2019-05-21T19:27:47.194Z,18.20
2019-05-21T19:32:52.635Z,18.10
2019-05-21T19:37:57.995Z,18.10
2019-05-21T19:43:03.316Z,18.00
2019-05-21T19:48:09.068Z,17.90
2019-05-21T19:53:14.760Z,17.90
2019-05-21T19:58:20.468Z,17.80
2019-05-21T20:03:26.236Z,17.80
2019-05-21T20:08:31.726Z,17.70
2019-05-21T20:13:37.195Z,17.60
2019-05-21T20:18:43.395Z,17.50
2019-05-21T20:23:49.048Z,17.40
2019-05-21T20:28:54.957Z,17.30
2019-05-21T20:34:01.723Z,17.30
2019-05-21T20:39:09.932Z,17.30
2019-05-21T20:44:16.959Z,17.20
2019-05-21T20:49:23.116Z,17.20
2019-05-21T20:54:28.746Z,17.10
2019-05-21T20:59:34.061Z,17.00
2019-05-21T21:04:40.114Z,17.00
2019-05-21T21:09:46.529Z,16.90
2019-05-21T21:14:52.745Z,16.80
2019-05-21T21:19:59.908Z,16.70
2019-05-21T21:25:08.065Z,16.60
2019-05-21T21:30:14.871Z,16.50
2019-05-21T21:35:20.777Z,16.40
2019-05-21T21:40:26.190Z,16.30
2019-05-21T21:45:31.540Z,16.30
2019-05-21T21:50:38.916Z,16.30
2019-05-21T21:55:44.292Z,16.20
2019-05-21T22:00:59.894Z,16.20
2019-05-21T22:06:09.339Z,16.10
2019-05-21T22:11:14.852Z,16.10
2019-05-21T22:16:20.373Z,16.10
2019-05-21T22:21:26.538Z,16.00
2019-05-21T22:26:32.015Z,15.90
2019-05-21T22:31:37.708Z,15.80
2019-05-21T22:36:42.894Z,15.80
2019-05-21T22:41:47.888Z,15.80
2019-05-21T22:46:53.486Z,15.70
2019-05-21T22:51:58.935Z,15.70
2019-05-21T22:57:04.133Z,15.60
2019-05-21T23:02:10.820Z,15.60
2019-05-21T23:07:16.507Z,15.50
2019-05-21T23:12:21.573Z,15.50
2019-05-21T23:17:29.334Z,15.40
2019-05-21T23:22:36.374Z,15.30
2019-05-21T23:27:42.130Z,15.20
2019-05-21T23:32:47.460Z,15.20
2019-05-21T23:37:53.314Z,15.20
2019-05-21T23:42:58.754Z,15.10
2019-05-21T23:48:05.315Z,15.10
2019-05-21T23:53:11.274Z,15.10
2019-05-21T23:58:17.889Z,15.00
